createdAt,value
2023-01-13T00:00:27.382Z,84.338379
2023-01-13T00:01:37.346Z,84.130859
2023-01-13T00:02:47.317Z,84.338379
2023-01-13T00:03:56.316Z,84.442139
2023-01-13T00:05:06.323Z,84.442139
2023-01-13T00:06:16.258Z,84.442139
2023-01-13T00:07:26.199Z,84.545898
2023-01-13T00:08:36.169Z,84.509277
2023-01-13T00:09:45.198Z,84.405518
2023-01-13T00:10:55.154Z,84.405518
2023-01-13T00:12:04.118Z,84.094238
2023-01-13T00:13:14.094Z,84.301758
2023-01-13T00:14:23.995Z,84.094238
2023-01-13T00:15:32.930Z,84.094238
2023-01-13T00:16:41.818Z,83.990479
2023-01-13T00:17:51.707Z,83.782959
2023-01-13T00:19:01.971Z,83.990479
2023-01-13T00:20:12.272Z,84.094238
2023-01-13T00:21:22.840Z,84.094238
2023-01-13T00:22:33.951Z,84.405518
2023-01-13T00:23:43.943Z,84.509277
2023-01-13T00:24:53.864Z,84.613037
2023-01-13T00:26:03.769Z,84.301758
2023-01-13T00:27:13.699Z,84.362793
2023-01-13T00:28:22.586Z,84.057617
2023-01-13T00:29:32.468Z,83.953857
2023-01-13T00:30:41.393Z,83.605957
2023-01-13T00:31:51.341Z,83.398438
2023-01-13T00:33:01.326Z,83.361816
2023-01-13T00:34:10.282Z,82.843018
2023-01-13T00:35:20.194Z,83.154297
2023-01-13T00:36:29.048Z,82.086182
2023-01-13T00:37:38.936Z,81.634521
2023-01-13T00:38:48.875Z,81.530762
2023-01-13T00:39:57.865Z,81.530762
2023-01-13T00:41:06.735Z,81.329346
2023-01-13T00:42:16.663Z,80.981445
2023-01-13T00:43:26.623Z,81.085205
2023-01-13T00:44:35.633Z,80.981445
2023-01-13T00:45:45.594Z,80.981445
2023-01-13T00:46:54.666Z,80.773926
2023-01-13T00:48:04.527Z,80.670166
2023-01-13T00:49:12.516Z,80.566406
2023-01-13T00:50:22.614Z,80.566406
2023-01-13T00:51:32.590Z,80.46875
2023-01-13T00:52:42.528Z,80.224609
2023-01-13T00:53:52.477Z,80.01709
2023-01-13T00:55:02.446Z,80.12085
2023-01-13T00:56:12.412Z,80.12085
2023-01-13T00:57:23.353Z,79.80957
2023-01-13T00:58:33.298Z,79.91333
2023-01-13T00:59:43.250Z,79.91333
2023-01-13T01:00:54.365Z,79.608154
2023-01-13T01:02:04.352Z,79.608154
2023-01-13T01:03:13.255Z,79.669189
2023-01-13T01:04:23.206Z,79.260254
2023-01-13T01:05:33.176Z,79.052734
2023-01-13T01:06:43.149Z,78.851318
2023-01-13T01:07:52.134Z,78.851318
2023-01-13T01:09:02.156Z,78.747559
2023-01-13T01:10:12.195Z,78.295898
2023-01-13T01:11:22.253Z,78.198242
2023-01-13T01:12:32.167Z,77.990723
2023-01-13T01:13:42.185Z,77.886963
2023-01-13T01:14:51.160Z,77.679443
2023-01-13T01:16:01.187Z,77.679443
2023-01-13T01:17:10.083Z,77.545166
2023-01-13T01:18:19.008Z,77.441406
2023-01-13T01:19:28.979Z,77.337646
2023-01-13T01:20:38.950Z,77.130127
2023-01-13T01:21:48.935Z,77.233887
2023-01-13T01:22:58.879Z,77.032471
2023-01-13T01:24:08.858Z,77.130127
2023-01-13T01:25:18.858Z,77.337646
2023-01-13T01:26:28.902Z,77.032471
2023-01-13T01:27:37.755Z,77.130127
2023-01-13T01:28:47.690Z,76.721191
2023-01-13T01:29:57.649Z,76.513672
2023-01-13T01:31:06.677Z,76.275635
2023-01-13T01:32:17.552Z,76.171875
2023-01-13T01:33:26.481Z,75.970459
2023-01-13T01:34:36.446Z,75.55542
2023-01-13T01:35:46.500Z,75.65918
2023-01-13T01:36:56.591Z,75.970459
2023-01-13T01:38:06.594Z,75.866699
2023-01-13T01:39:16.555Z,75.762939
2023-01-13T01:40:26.504Z,75.866699
2023-01-13T01:41:36.515Z,75.45166
2023-01-13T01:42:45.591Z,75.250244
2023-01-13T01:43:55.563Z,75.354004
2023-01-13T01:45:04.512Z,75.146484
2023-01-13T01:46:14.532Z,75.55542
2023-01-13T01:47:23.502Z,75.45166
2023-01-13T01:48:33.427Z,75.250244
2023-01-13T01:49:43.394Z,75.45166
2023-01-13T01:50:53.382Z,75.45166
2023-01-13T01:52:03.400Z,75.65918
2023-01-13T01:53:13.383Z,75.354004
2023-01-13T01:54:22.353Z,75.354004
2023-01-13T01:55:31.314Z,75.354004
2023-01-13T01:56:41.282Z,74.633789
2023-01-13T01:57:50.238Z,74.633789
2023-01-13T01:59:00.171Z,74.841309
2023-01-13T02:00:09.150Z,74.841309
2023-01-13T02:01:19.196Z,74.633789
2023-01-13T02:02:29.093Z,74.530029
2023-01-13T02:03:39.006Z,74.084473
2023-01-13T02:04:47.971Z,74.395752
2023-01-13T02:05:57.950Z,74.530029
2023-01-13T02:07:07.939Z,74.737549
2023-01-13T02:08:17.912Z,75.146484
2023-01-13T02:09:26.876Z,75.042725
2023-01-13T02:10:36.945Z,74.938965
2023-01-13T02:11:46.958Z,75.042725
2023-01-13T02:12:55.945Z,75.079346
2023-01-13T02:14:05.879Z,74.975586
2023-01-13T02:15:15.838Z,74.938965
2023-01-13T02:16:25.802Z,74.841309
2023-01-13T02:17:35.759Z,74.633789
2023-01-13T02:18:44.697Z,74.871826
2023-01-13T02:19:54.671Z,74.975586
2023-01-13T02:21:04.685Z,74.975586
2023-01-13T02:22:14.631Z,74.67041
2023-01-13T02:23:24.636Z,74.56665
2023-01-13T02:24:33.582Z,74.67041
2023-01-13T02:25:43.568Z,74.462891
2023-01-13T02:26:53.534Z,74.56665
2023-01-13T02:28:03.455Z,74.67041
2023-01-13T02:29:13.462Z,74.121094
2023-01-13T02:30:23.415Z,74.017334
2023-01-13T02:31:33.459Z,73.913574
2023-01-13T02:32:42.359Z,73.608398
2023-01-13T02:33:52.323Z,73.913574
2023-01-13T02:35:01.312Z,74.42627
2023-01-13T02:36:11.296Z,74.017334
2023-01-13T02:37:21.248Z,74.255371
2023-01-13T02:38:30.242Z,74.462891
2023-01-13T02:39:40.187Z,74.67041
2023-01-13T02:40:50.192Z,74.67041
2023-01-13T02:42:00.165Z,74.768066
2023-01-13T02:43:10.169Z,74.768066
2023-01-13T02:44:21.116Z,75.012207
2023-01-13T02:45:31.120Z,74.908447
2023-01-13T02:46:40.094Z,75.115967
2023-01-13T02:47:48.039Z,75.012207
2023-01-13T02:48:57.957Z,75.213623
2023-01-13T02:50:06.919Z,75.524902
2023-01-13T02:51:15.871Z,75.457764
2023-01-13T02:52:25.872Z,75.561523
2023-01-13T02:53:35.802Z,75.866699
2023-01-13T02:54:44.733Z,75.561523
2023-01-13T02:55:54.730Z,75.762939
2023-01-13T02:57:04.690Z,75.762939
2023-01-13T02:58:14.701Z,75.665283
2023-01-13T02:59:24.599Z,75.970459
2023-01-13T03:00:34.393Z,76.00708
2023-01-13T03:01:44.221Z,76.11084
2023-01-13T03:02:53.981Z,75.799561
2023-01-13T03:04:03.637Z,75.695801
2023-01-13T03:05:13.386Z,76.11084
2023-01-13T03:06:23.127Z,76.11084
2023-01-13T03:07:32.883Z,76.00708
2023-01-13T03:08:41.622Z,76.11084
2023-01-13T03:09:51.402Z,76.11084
2023-01-13T03:11:01.178Z,76.312256
2023-01-13T03:12:10.897Z,76.11084
2023-01-13T03:13:18.632Z,75.799561
2023-01-13T03:14:28.376Z,76.11084
2023-01-13T03:15:38.149Z,76.2146
2023-01-13T03:16:46.905Z,75.90332
2023-01-13T03:17:56.652Z,75.695801
2023-01-13T03:19:06.380Z,75.695801
2023-01-13T03:20:16.103Z,76.00708
2023-01-13T03:21:25.910Z,76.11084
2023-01-13T03:22:35.636Z,75.799561
2023-01-13T03:23:44.431Z,75.592041
2023-01-13T03:24:54.203Z,75.90332
2023-01-13T03:26:03.944Z,75.592041
2023-01-13T03:27:13.713Z,75.494385
2023-01-13T03:28:22.484Z,75.494385
2023-01-13T03:29:32.216Z,75.390625
2023-01-13T03:30:42.015Z,75.494385
2023-01-13T03:31:50.663Z,75.286865
2023-01-13T03:33:00.445Z,75.183105
2023-01-13T03:34:10.189Z,75.079346
2023-01-13T03:35:17.925Z,75.183105
2023-01-13T03:36:27.687Z,74.945068
2023-01-13T03:37:37.455Z,74.841309
2023-01-13T03:38:46.263Z,74.945068
2023-01-13T03:39:56.016Z,74.633789
2023-01-13T03:41:05.732Z,74.841309
2023-01-13T03:42:15.458Z,75.042725
2023-01-13T03:43:24.199Z,75.146484
2023-01-13T03:44:33.932Z,75.146484
2023-01-13T03:45:43.600Z,75.183105
2023-01-13T03:46:52.248Z,75.390625
2023-01-13T03:48:01.909Z,75.494385
2023-01-13T03:49:10.689Z,75.695801
2023-01-13T03:50:20.416Z,75.90332
2023-01-13T03:51:30.139Z,76.00708
2023-01-13T03:52:39.899Z,76.00708
2023-01-13T03:53:49.692Z,75.90332
2023-01-13T03:54:59.473Z,76.11084
2023-01-13T03:56:08.296Z,76.11084
2023-01-13T03:57:18.069Z,76.00708
2023-01-13T03:58:27.823Z,76.11084
2023-01-13T03:59:36.542Z,76.00708
2023-01-13T04:00:46.277Z,75.90332
2023-01-13T04:01:56.185Z,75.90332
2023-01-13T04:03:05.809Z,75.90332
2023-01-13T04:04:15.576Z,75.390625
2023-01-13T04:05:25.294Z,75.390625
2023-01-13T04:06:35.075Z,75.146484
2023-01-13T04:07:44.837Z,75.042725
2023-01-13T04:08:54.567Z,74.841309
2023-01-13T04:10:04.321Z,74.841309
2023-01-13T04:11:14.093Z,74.945068
2023-01-13T04:12:23.838Z,74.945068
2023-01-13T04:13:33.597Z,74.737549
2023-01-13T04:14:43.331Z,74.841309
2023-01-13T04:15:53.142Z,74.737549
2023-01-13T04:17:01.827Z,74.633789
2023-01-13T04:18:11.646Z,74.328613
2023-01-13T04:19:24.757Z,74.633789
2023-01-13T04:20:36.123Z,74.530029
2023-01-13T04:21:44.933Z,74.017334
2023-01-13T04:22:54.699Z,74.224854
2023-01-13T04:24:03.429Z,74.328613
2023-01-13T04:25:13.195Z,74.017334
2023-01-13T04:26:22.937Z,73.809814
2023-01-13T04:27:32.702Z,73.608398
2023-01-13T04:28:42.437Z,73.364258
2023-01-13T04:29:52.156Z,73.266602
2023-01-13T04:31:00.964Z,73.571777
2023-01-13T04:32:10.736Z,73.468018
2023-01-13T04:33:20.528Z,73.809814
2023-01-13T04:34:30.275Z,73.608398
2023-01-13T04:35:39.987Z,73.364258
2023-01-13T04:36:49.737Z,73.266602
2023-01-13T04:37:59.553Z,73.162842
2023-01-13T04:39:09.349Z,73.364258
2023-01-13T04:40:19.124Z,72.851562
2023-01-13T04:41:28.879Z,72.955322
2023-01-13T04:42:38.669Z,72.509766
2023-01-13T04:43:48.438Z,72.613525
2023-01-13T04:44:58.197Z,71.99707
2023-01-13T04:46:07.030Z,71.99707
2023-01-13T04:47:16.705Z,71.350098
2023-01-13T04:48:26.496Z,70.495605
2023-01-13T04:49:36.255Z,69.98291
2023-01-13T04:50:45.962Z,69.537354
2023-01-13T04:51:55.698Z,69.641113
2023-01-13T04:53:04.437Z,69.537354
2023-01-13T04:54:14.227Z,69.329834
2023-01-13T04:55:23.951Z,69.195557
2023-01-13T04:56:33.669Z,69.403076
2023-01-13T04:57:43.425Z,69.0979
2023-01-13T04:58:52.133Z,68.994141
2023-01-13T05:00:01.904Z,68.682861
2023-01-13T05:01:11.782Z,68.682861
2023-01-13T05:02:20.482Z,68.377686
2023-01-13T05:03:30.166Z,68.585205
2023-01-13T05:04:40.023Z,68.652344
2023-01-13T05:05:49.750Z,68.548584
2023-01-13T05:06:59.496Z,68.347168
2023-01-13T05:08:09.289Z,68.548584
2023-01-13T05:09:19.025Z,68.035889
2023-01-13T05:10:27.804Z,68.139648
2023-01-13T05:11:36.555Z,68.347168
2023-01-13T05:12:46.328Z,68.243408
2023-01-13T05:13:55.161Z,68.414307
2023-01-13T05:15:04.917Z,68.414307
2023-01-13T05:16:13.872Z,68.109131
2023-01-13T05:17:23.604Z,68.109131
2023-01-13T05:18:33.340Z,68.212891
2023-01-13T05:19:42.064Z,68.109131
2023-01-13T05:20:50.887Z,68.212891
2023-01-13T05:22:00.597Z,68.31665
2023-01-13T05:23:09.373Z,68.31665
2023-01-13T05:24:19.104Z,68.518066
2023-01-13T05:25:28.833Z,68.725586
2023-01-13T05:26:38.573Z,68.31665
2023-01-13T05:27:48.344Z,68.212891
2023-01-13T05:28:58.150Z,68.280029
2023-01-13T05:30:07.960Z,68.078613
2023-01-13T05:31:18.770Z,68.280029
2023-01-13T05:32:27.449Z,68.383789
2023-01-13T05:33:37.171Z,68.383789
2023-01-13T05:34:46.949Z,68.414307
2023-01-13T05:35:56.700Z,68.31665
2023-01-13T05:37:06.413Z,67.974854
2023-01-13T05:38:16.135Z,68.487549
2023-01-13T05:39:25.876Z,68.078613
2023-01-13T05:40:34.708Z,67.974854
2023-01-13T05:41:44.434Z,67.974854
2023-01-13T05:42:54.210Z,67.974854
2023-01-13T05:44:02.975Z,67.974854
2023-01-13T05:45:12.660Z,67.974854
2023-01-13T05:46:21.478Z,67.773438
2023-01-13T05:47:30.160Z,67.669678
2023-01-13T05:48:39.917Z,67.974854
2023-01-13T05:49:49.655Z,68.280029
2023-01-13T05:50:59.421Z,67.773438
2023-01-13T05:52:08.181Z,67.871094
2023-01-13T05:53:17.939Z,67.669678
2023-01-13T05:54:27.653Z,67.773438
2023-01-13T05:55:37.399Z,68.078613
2023-01-13T05:56:47.122Z,67.974854
2023-01-13T05:57:56.918Z,68.280029
2023-01-13T05:59:07.673Z,68.182373
2023-01-13T06:00:17.423Z,68.078613
2023-01-13T06:01:27.196Z,67.773438
2023-01-13T06:02:35.968Z,67.871094
2023-01-13T06:03:45.663Z,67.773438
2023-01-13T06:04:55.409Z,67.773438
2023-01-13T06:06:04.398Z,67.669678
2023-01-13T06:07:14.049Z,67.669678
2023-01-13T06:08:23.744Z,67.736816
2023-01-13T06:09:32.538Z,68.048096
2023-01-13T06:10:41.289Z,67.736816
2023-01-13T06:11:51.031Z,67.5354
2023-01-13T06:13:00.756Z,67.5354
2023-01-13T06:14:09.510Z,67.944336
2023-01-13T06:15:17.263Z,67.840576
2023-01-13T06:16:27.058Z,67.944336
2023-01-13T06:17:36.702Z,67.944336
2023-01-13T06:18:45.449Z,67.944336
2023-01-13T06:19:54.188Z,67.944336
2023-01-13T06:21:02.965Z,67.840576
2023-01-13T06:22:12.721Z,68.048096
2023-01-13T06:23:21.492Z,68.048096
2023-01-13T06:24:30.183Z,67.944336
2023-01-13T06:25:40.038Z,67.840576
2023-01-13T06:26:49.759Z,68.145752
2023-01-13T06:27:59.532Z,68.145752
2023-01-13T06:29:08.302Z,67.944336
2023-01-13T06:30:18.032Z,68.048096
2023-01-13T06:31:27.793Z,68.145752
2023-01-13T06:32:36.596Z,68.145752
2023-01-13T06:33:45.375Z,68.353271
2023-01-13T06:34:55.113Z,68.353271
2023-01-13T06:36:04.848Z,68.457031
2023-01-13T06:37:14.594Z,68.658447
2023-01-13T06:38:24.400Z,68.554688
2023-01-13T06:39:34.129Z,68.658447
2023-01-13T06:40:43.901Z,68.865967
2023-01-13T06:41:53.633Z,68.762207
2023-01-13T06:43:03.365Z,68.865967
2023-01-13T06:44:13.138Z,69.171143
2023-01-13T06:45:21.895Z,69.30542
2023-01-13T06:46:31.677Z,69.104004
2023-01-13T06:47:40.365Z,69.000244
2023-01-13T06:48:50.081Z,69.104004
2023-01-13T06:49:58.874Z,68.865967
2023-01-13T06:51:08.616Z,69.067383
2023-01-13T06:52:17.383Z,69.20166
2023-01-13T06:53:27.159Z,68.865967
2023-01-13T06:54:36.939Z,68.865967
2023-01-13T06:55:45.699Z,68.554688
2023-01-13T06:56:55.448Z,68.457031
2023-01-13T06:58:05.209Z,68.457031
2023-01-13T06:59:15.972Z,68.457031
2023-01-13T07:00:24.687Z,68.457031
2023-01-13T07:01:34.622Z,68.457031
2023-01-13T07:02:45.236Z,68.554688
2023-01-13T07:03:54.968Z,68.353271
2023-01-13T07:05:04.693Z,68.658447
2023-01-13T07:06:13.444Z,68.457031
2023-01-13T07:07:22.215Z,68.353271
2023-01-13T07:08:32.022Z,68.353271
2023-01-13T07:09:41.765Z,68.554688
2023-01-13T07:10:51.505Z,68.762207
2023-01-13T07:12:00.220Z,68.896484
2023-01-13T07:13:09.979Z,68.688965
2023-01-13T07:14:19.708Z,68.792725
2023-01-13T07:15:29.461Z,69.000244
2023-01-13T07:16:38.273Z,68.688965
2023-01-13T07:17:47.935Z,68.792725
2023-01-13T07:18:57.748Z,68.591309
2023-01-13T07:20:05.473Z,68.383789
2023-01-13T07:21:15.195Z,68.457031
2023-01-13T07:22:24.967Z,68.554688
2023-01-13T07:23:34.695Z,68.457031
2023-01-13T07:24:44.526Z,68.353271
2023-01-13T07:25:54.260Z,68.792725
2023-01-13T07:27:04.027Z,68.792725
2023-01-13T07:28:12.803Z,68.896484
2023-01-13T07:29:22.555Z,69.104004
2023-01-13T07:30:31.323Z,68.792725
2023-01-13T07:31:41.073Z,68.896484
2023-01-13T07:32:50.826Z,68.896484
2023-01-13T07:34:00.536Z,69.20166
2023-01-13T07:35:10.834Z,69.104004
2023-01-13T07:36:19.587Z,69.000244
2023-01-13T07:37:29.353Z,69.104004
2023-01-13T07:38:39.098Z,69.30542
2023-01-13T07:39:48.875Z,68.896484
2023-01-13T07:40:57.594Z,69.20166
2023-01-13T07:42:07.400Z,69.30542
2023-01-13T07:43:17.129Z,69.40918
2023-01-13T07:44:26.848Z,69.20166
2023-01-13T07:45:36.660Z,69.335938
2023-01-13T07:46:46.391Z,69.439697
2023-01-13T07:47:56.150Z,69.238281
2023-01-13T07:49:05.870Z,68.688965
2023-01-13T07:50:15.621Z,68.792725
2023-01-13T07:51:25.360Z,69.000244
2023-01-13T07:52:35.116Z,68.896484
2023-01-13T07:53:43.878Z,69.104004
2023-01-13T07:54:53.614Z,68.792725
2023-01-13T07:56:03.315Z,68.688965
2023-01-13T07:57:13.022Z,68.896484
2023-01-13T07:58:22.761Z,68.792725
2023-01-13T07:59:32.514Z,69.30542
2023-01-13T08:00:42.268Z,69.000244
2023-01-13T08:01:52.153Z,68.591309
2023-01-13T08:03:01.941Z,68.792725
2023-01-13T08:04:10.503Z,68.280029
2023-01-13T08:05:20.315Z,68.383789
2023-01-13T08:06:30.056Z,68.487549
2023-01-13T08:07:39.837Z,68.487549
2023-01-13T08:08:49.596Z,68.383789
2023-01-13T08:09:59.391Z,68.280029
2023-01-13T08:11:09.109Z,67.974854
2023-01-13T08:12:17.823Z,68.182373
2023-01-13T08:13:27.544Z,68.280029
2023-01-13T08:14:37.357Z,68.078613
2023-01-13T08:15:47.101Z,68.078613
2023-01-13T08:16:55.925Z,67.840576
2023-01-13T08:18:05.652Z,67.736816
2023-01-13T08:19:15.438Z,67.944336
2023-01-13T08:20:25.347Z,67.840576
2023-01-13T08:21:35.015Z,67.944336
2023-01-13T08:22:44.781Z,68.249512
2023-01-13T08:23:54.548Z,68.145752
2023-01-13T08:25:04.280Z,68.048096
2023-01-13T08:26:13.074Z,68.457031
2023-01-13T08:27:22.800Z,68.048096
2023-01-13T08:28:32.472Z,68.145752
2023-01-13T08:29:41.172Z,68.145752
2023-01-13T08:30:51.049Z,68.048096
2023-01-13T08:32:00.743Z,67.63916
2023-01-13T08:33:10.466Z,68.145752
2023-01-13T08:34:20.208Z,68.249512
2023-01-13T08:35:27.935Z,67.840576
2023-01-13T08:36:37.664Z,67.840576
2023-01-13T08:37:47.424Z,67.63916
2023-01-13T08:38:57.143Z,68.048096
2023-01-13T08:40:06.922Z,67.504883
2023-01-13T08:41:16.625Z,67.602539
2023-01-13T08:42:26.365Z,67.193604
2023-01-13T08:43:37.165Z,67.602539
2023-01-13T08:44:45.902Z,66.992188
2023-01-13T08:45:55.760Z,67.095947
2023-01-13T08:47:04.410Z,66.888428
2023-01-13T08:48:13.370Z,66.992188
2023-01-13T08:49:23.127Z,67.095947
2023-01-13T08:50:32.898Z,67.504883
2023-01-13T08:51:42.681Z,67.297363
2023-01-13T08:52:52.443Z,66.784668
2023-01-13T08:54:02.197Z,67.602539
2023-01-13T08:55:10.964Z,70.776367
2023-01-13T08:56:20.680Z,70.776367
2023-01-13T08:57:30.537Z,70.709229
2023-01-13T08:58:40.183Z,69.787598
2023-01-13T08:59:49.928Z,69.476318
2023-01-13T09:00:59.712Z,69.580078
2023-01-13T09:02:09.424Z,69.171143
2023-01-13T09:03:19.153Z,68.554688
2023-01-13T09:04:28.950Z,68.457031
2023-01-13T09:05:38.686Z,68.011475
2023-01-13T09:06:48.404Z,67.810059
2023-01-13T09:07:58.136Z,67.504883
2023-01-13T09:09:07.899Z,67.602539
2023-01-13T09:10:17.619Z,66.85791
2023-01-13T09:11:27.339Z,66.656494
2023-01-13T09:12:36.100Z,66.96167
2023-01-13T09:13:44.822Z,66.656494
2023-01-13T09:14:54.581Z,66.656494
2023-01-13T09:16:04.452Z,66.448975
2023-01-13T09:17:14.148Z,66.418457
2023-01-13T09:18:22.898Z,66.009521
2023-01-13T09:19:32.627Z,66.113281
2023-01-13T09:20:42.393Z,66.210938
2023-01-13T09:21:52.195Z,66.009521
2023-01-13T09:23:01.960Z,65.905762
2023-01-13T09:24:12.692Z,65.704346
2023-01-13T09:25:22.447Z,65.600586
2023-01-13T09:26:32.177Z,65.600586
2023-01-13T09:27:41.912Z,65.905762
2023-01-13T09:28:51.631Z,65.704346
2023-01-13T09:30:01.407Z,65.570068
2023-01-13T09:31:11.191Z,65.264893
2023-01-13T09:32:20.924Z,65.368652
2023-01-13T09:33:29.710Z,65.466309
2023-01-13T09:34:38.471Z,65.161133
2023-01-13T09:35:48.185Z,64.855957
2023-01-13T09:36:57.935Z,64.855957
2023-01-13T09:38:06.729Z,64.752197
2023-01-13T09:39:16.514Z,64.239502
2023-01-13T09:40:25.284Z,64.343262
2023-01-13T09:41:35.033Z,64.038086
2023-01-13T09:42:44.799Z,63.934326
2023-01-13T09:43:54.579Z,64.038086
2023-01-13T09:45:04.346Z,64.111328
2023-01-13T09:46:14.087Z,63.293457
2023-01-13T09:47:23.884Z,63.293457
2023-01-13T09:48:33.649Z,63.397217
2023-01-13T09:49:42.434Z,63.397217
2023-01-13T09:50:52.191Z,63.189697
2023-01-13T09:52:00.953Z,62.988281
2023-01-13T09:53:10.675Z,62.988281
2023-01-13T09:54:20.466Z,63.15918
2023-01-13T09:55:30.253Z,63.061523
2023-01-13T09:56:38.949Z,63.262939
2023-01-13T09:57:47.689Z,63.15918
2023-01-13T09:58:57.454Z,62.652588
2023-01-13T10:00:07.205Z,62.756348
2023-01-13T10:01:16.037Z,62.854004
2023-01-13T10:02:25.766Z,62.927246
2023-01-13T10:03:35.605Z,62.72583
2023-01-13T10:04:45.326Z,62.823486
2023-01-13T10:05:54.050Z,63.134766
2023-01-13T10:07:02.830Z,62.823486
2023-01-13T10:08:12.591Z,62.695312
2023-01-13T10:09:22.366Z,62.896729
2023-01-13T10:10:31.214Z,62.493896
2023-01-13T10:11:38.971Z,62.493896
2023-01-13T10:12:48.723Z,62.695312
2023-01-13T10:13:58.467Z,62.561035
2023-01-13T10:15:08.241Z,62.158203
2023-01-13T10:16:18.055Z,61.981201
2023-01-13T10:17:27.752Z,62.390137
2023-01-13T10:18:37.508Z,62.463379
2023-01-13T10:19:47.258Z,62.463379
2023-01-13T10:20:55.999Z,62.768555
2023-01-13T10:22:07.279Z,62.359619
2023-01-13T10:23:15.481Z,62.561035
2023-01-13T10:24:25.263Z,62.463379
2023-01-13T10:25:34.016Z,62.359619
2023-01-13T10:26:42.830Z,62.158203
2023-01-13T10:27:52.561Z,62.969971
2023-01-13T10:29:02.300Z,62.664795
2023-01-13T10:30:12.078Z,62.463379
2023-01-13T10:31:21.862Z,62.359619
2023-01-13T10:32:30.603Z,62.664795
2023-01-13T10:33:40.315Z,62.664795
2023-01-13T10:34:50.034Z,63.000488
2023-01-13T10:35:58.763Z,63.61084
2023-01-13T10:37:08.452Z,63.201904
2023-01-13T10:38:17.145Z,63.513184
2023-01-13T10:39:26.886Z,63.61084
2023-01-13T10:40:36.691Z,63.513184
2023-01-13T10:41:46.494Z,63.482666
2023-01-13T10:42:56.227Z,63.17749
2023-01-13T10:44:08.509Z,63.146973
2023-01-13T10:45:15.732Z,62.634277
2023-01-13T10:46:25.589Z,62.298584
2023-01-13T10:47:34.307Z,62.200928
2023-01-13T10:48:44.077Z,61.688232
2023-01-13T10:49:53.895Z,61.688232
2023-01-13T10:51:02.669Z,61.761475
2023-01-13T10:52:12.460Z,61.358643
2023-01-13T10:53:21.261Z,61.456299
2023-01-13T10:54:31.022Z,61.151123
2023-01-13T10:55:40.752Z,61.181641
2023-01-13T10:56:50.537Z,61.590576
2023-01-13T10:58:00.267Z,61.92627
2023-01-13T10:59:10.032Z,62.432861
2023-01-13T11:00:19.874Z,62.329102
2023-01-13T11:01:28.821Z,62.939453
2023-01-13T11:02:38.418Z,62.738037
2023-01-13T11:03:48.127Z,62.738037
2023-01-13T11:04:57.960Z,62.969971
2023-01-13T11:06:07.641Z,63.378906
2023-01-13T11:07:17.407Z,63.482666
2023-01-13T11:08:27.200Z,63.482666
2023-01-13T11:09:37.004Z,63.684082
2023-01-13T11:10:45.770Z,63.861084
2023-01-13T11:11:55.566Z,63.348389
2023-01-13T11:13:06.255Z,63.220215
2023-01-13T11:14:16.043Z,63.95874
2023-01-13T11:15:25.763Z,64.16626
2023-01-13T11:16:34.517Z,64.807129
2023-01-13T11:17:45.247Z,65.216064
2023-01-13T11:18:54.007Z,65.52124
2023-01-13T11:20:03.778Z,65.826416
2023-01-13T11:21:13.551Z,66.229248
2023-01-13T11:22:23.354Z,66.436768
2023-01-13T11:23:33.112Z,66.943359
2023-01-13T11:24:41.866Z,67.657471
2023-01-13T11:25:51.602Z,67.553711
2023-01-13T11:27:01.508Z,68.066406
2023-01-13T11:28:11.283Z,69.628906
2023-01-13T11:29:21.041Z,72.106934
2023-01-13T11:30:30.794Z,72.821045
2023-01-13T11:31:40.585Z,73.059082
2023-01-13T11:32:50.299Z,72.241211
2023-01-13T11:34:00.062Z,71.838379
2023-01-13T11:35:09.801Z,70.916748
2023-01-13T11:36:20.667Z,70.88623
2023-01-13T11:37:29.286Z,71.496582
2023-01-13T11:38:39.028Z,71.392822
2023-01-13T11:39:48.795Z,71.496582
2023-01-13T11:40:58.556Z,70.812988
2023-01-13T11:42:08.446Z,71.325684
2023-01-13T11:43:18.088Z,70.916748
2023-01-13T11:44:27.841Z,70.715332
2023-01-13T11:45:36.648Z,70.916748
2023-01-13T11:46:45.449Z,71.356201
2023-01-13T11:47:54.124Z,71.66748
2023-01-13T11:49:03.965Z,71.765137
2023-01-13T11:50:13.754Z,71.972656
2023-01-13T11:51:23.579Z,72.174072
2023-01-13T11:52:33.325Z,72.583008
2023-01-13T11:53:43.163Z,72.143555
2023-01-13T11:54:50.923Z,71.936035
2023-01-13T11:55:59.653Z,71.838379
2023-01-13T11:57:09.521Z,71.5271
2023-01-13T11:58:19.290Z,71.697998
2023-01-13T11:59:29.072Z,71.289062
2023-01-13T12:00:37.781Z,71.325684
2023-01-13T12:01:47.578Z,71.191406
2023-01-13T12:02:57.710Z,71.087646
2023-01-13T12:04:07.407Z,70.88623
2023-01-13T12:05:16.113Z,70.544434
2023-01-13T12:06:24.974Z,70.239258
2023-01-13T12:07:34.727Z,69.934082
2023-01-13T12:08:44.492Z,70.068359
2023-01-13T12:09:54.231Z,70.135498
2023-01-13T12:11:04.034Z,70.135498
2023-01-13T12:12:13.856Z,69.934082
2023-01-13T12:13:23.692Z,69.421387
2023-01-13T12:14:32.412Z,69.116211
2023-01-13T12:15:42.280Z,69.287109
2023-01-13T12:16:52.181Z,69.390869
2023-01-13T12:18:01.706Z,69.287109
2023-01-13T12:19:11.398Z,68.676758
2023-01-13T12:20:21.151Z,68.475342
2023-01-13T12:21:30.884Z,68.914795
2023-01-13T12:22:40.661Z,69.018555
2023-01-13T12:23:49.401Z,68.884277
2023-01-13T12:24:59.164Z,68.676758
2023-01-13T12:26:08.966Z,68.884277
2023-01-13T12:27:18.696Z,68.572998
2023-01-13T12:28:28.504Z,68.811035
2023-01-13T12:29:38.298Z,69.219971
2023-01-13T12:30:48.057Z,69.555664
2023-01-13T12:31:57.850Z,69.592285
2023-01-13T12:33:07.525Z,69.897461
2023-01-13T12:34:17.246Z,70.098877
2023-01-13T12:35:26.978Z,70.306396
2023-01-13T12:36:36.662Z,70.202637
2023-01-13T12:37:45.432Z,70.440674
2023-01-13T12:38:55.118Z,70.64209
2023-01-13T12:40:04.870Z,70.849609
2023-01-13T12:41:13.631Z,70.849609
2023-01-13T12:42:22.363Z,70.849609
2023-01-13T12:43:32.128Z,70.947266
2023-01-13T12:44:41.826Z,70.849609
2023-01-13T12:45:50.591Z,70.849609
2023-01-13T12:47:00.352Z,71.051025
2023-01-13T12:48:10.154Z,71.154785
2023-01-13T12:49:19.927Z,71.356201
2023-01-13T12:50:29.671Z,71.66748
2023-01-13T12:51:38.404Z,72.515869
2023-01-13T12:52:48.140Z,73.33374
2023-01-13T12:53:57.874Z,73.535156
2023-01-13T12:55:06.769Z,75.20752
2023-01-13T12:56:16.589Z,76.367188
2023-01-13T12:57:26.338Z,77.935791
2023-01-13T12:58:36.105Z,79.058838
2023-01-13T12:59:45.833Z,79.504395
2023-01-13T13:00:55.722Z,80.01709
2023-01-13T13:02:05.597Z,80.26123
2023-01-13T13:03:16.691Z,79.956055
2023-01-13T13:04:24.823Z,80.36499
2023-01-13T13:05:34.501Z,80.36499
2023-01-13T13:06:43.175Z,80.26123
2023-01-13T13:07:52.864Z,79.748535
2023-01-13T13:09:03.568Z,79.443359
2023-01-13T13:10:11.352Z,79.034424
2023-01-13T13:11:21.037Z,79.3396
2023-01-13T13:12:29.874Z,79.199219
2023-01-13T13:13:39.641Z,78.588867
2023-01-13T13:14:49.456Z,78.588867
2023-01-13T13:15:59.185Z,78.588867
2023-01-13T13:17:08.968Z,78.381348